Terminal Aerodrome Forecast
Issued by NWS

Home | Current Version | Previous Version | Text Only | Print | Product List | Glossary Off
Versions: 1 2 3 4 5 6 7 8 9 10 11 12 13 14 15 16 17 18 19

000
FTUS43 KICT 272322
TAFCNU
TAF
KCNU 272322Z 2800/2824 17012KT P6SM BKN120
     FM280300 16010KT P6SM VCTS SCT035CB BKN050
      TEMPO 2803/2807 2SM +TSRA OVC025CB
     FM281000 18009KT P6SM SCT010
     FM281500 23012KT P6SM SCT040=

USA.gov is the U.S. government's official web portal to all federal, state and local government web resources and services.